sensor_id;sensor_type;location;lat;lon;timestamp;P1;durP1;ratioP1;P2;durP2;ratioP2
4837;SDS011;2433;48.768;9.154;2022-11-15T00:01:23;4.83;;;2.57;;
4837;SDS011;2433;48.768;9.154;2022-11-15T00:04:07;3.00;;;2.37;;
4837;SDS011;2433;48.768;9.154;2022-11-15T00:06:51;2.80;;;2.50;;
4837;SDS011;2433;48.768;9.154;2022-11-15T00:09:36;5.03;;;3.20;;
4837;SDS011;2433;48.768;9.154;2022-11-15T00:12:20;2.80;;;2.50;;
4837;SDS011;2433;48.768;9.154;2022-11-15T00:15:04;3.27;;;2.40;;
4837;SDS011;2433;48.768;9.154;2022-11-15T00:17:49;4.30;;;3.23;;
4837;SDS011;2433;48.768;9.154;2022-11-15T00:20:33;2.83;;;2.20;;
4837;SDS011;2433;48.768;9.154;2022-11-15T00:23:17;4.53;;;2.27;;
4837;SDS011;2433;48.768;9.154;2022-11-15T00:26:01;4.70;;;2.90;;
4837;SDS011;2433;48.768;9.154;2022-11-15T00:28:46;3.00;;;1.97;;
4837;SDS011;2433;48.768;9.154;2022-11-15T00:31:30;2.80;;;2.10;;
4837;SDS011;2433;48.768;9.154;2022-11-15T00:34:14;1.80;;;1.70;;
4837;SDS011;2433;48.768;9.154;2022-11-15T00:36:58;3.93;;;2.20;;
4837;SDS011;2433;48.768;9.154;2022-11-15T00:39:43;2.27;;;2.07;;
4837;SDS011;2433;48.768;9.154;2022-11-15T00:42:27;3.73;;;1.73;;
4837;SDS011;2433;48.768;9.154;2022-11-15T00:45:11;2.60;;;1.93;;
4837;SDS011;2433;48.768;9.154;2022-11-15T00:47:55;2.23;;;2.03;;
4837;SDS011;2433;48.768;9.154;2022-11-15T00:50:39;2.90;;;2.70;;
4837;SDS011;2433;48.768;9.154;2022-11-15T00:53:24;2.33;;;2.00;;
4837;SDS011;2433;48.768;9.154;2022-11-15T00:56:08;4.20;;;2.20;;
4837;SDS011;2433;48.768;9.154;2022-11-15T00:58:52;3.83;;;2.80;;
4837;SDS011;2433;48.768;9.154;2022-11-15T01:01:36;1.97;;;1.87;;
4837;SDS011;2433;48.768;9.154;2022-11-15T01:04:20;2.87;;;2.40;;
4837;SDS011;2433;48.768;9.154;2022-11-15T01:07:05;3.10;;;2.20;;
4837;SDS011;2433;48.768;9.154;2022-11-15T01:09:49;2.73;;;2.27;;
4837;SDS011;2433;48.768;9.154;2022-11-15T01:12:33;3.40;;;2.10;;
4837;SDS011;2433;48.768;9.154;2022-11-15T01:15:18;2.17;;;1.97;;
4837;SDS011;2433;48.768;9.154;2022-11-15T01:18:02;3.33;;;2.10;;
4837;SDS011;2433;48.768;9.154;2022-11-15T01:20:47;4.30;;;2.63;;
4837;SDS011;2433;48.768;9.154;2022-11-15T01:23:31;2.60;;;2.23;;
4837;SDS011;2433;48.768;9.154;2022-11-15T01:26:15;4.13;;;2.23;;
4837;SDS011;2433;48.768;9.154;2022-11-15T01:28:59;4.37;;;2.30;;
4837;SDS011;2433;48.768;9.154;2022-11-15T01:31:44;2.50;;;2.13;;
4837;SDS011;2433;48.768;9.154;2022-11-15T01:34:28;2.70;;;1.87;;
4837;SDS011;2433;48.768;9.154;2022-11-15T01:37:12;4.00;;;2.20;;
4837;SDS011;2433;48.768;9.154;2022-11-15T01:39:56;2.40;;;2.20;;
4837;SDS011;2433;48.768;9.154;2022-11-15T01:42:40;3.13;;;2.50;;
4837;SDS011;2433;48.768;9.154;2022-11-15T01:45:25;3.67;;;2.87;;
4837;SDS011;2433;48.768;9.154;2022-11-15T01:48:09;2.13;;;1.83;;
4837;SDS011;2433;48.768;9.154;2022-11-15T01:50:54;3.43;;;2.10;;
4837;SDS011;2433;48.768;9.154;2022-11-15T01:53:39;5.30;;;2.00;;
4837;SDS011;2433;48.768;9.154;2022-11-15T01:56:25;4.80;;;2.67;;
4837;SDS011;2433;48.768;9.154;2022-11-15T01:59:12;2.50;;;2.30;;
4837;SDS011;2433;48.768;9.154;2022-11-15T02:01:57;4.17;;;2.33;;
4837;SDS011;2433;48.768;9.154;2022-11-15T02:04:42;2.10;;;1.90;;
4837;SDS011;2433;48.768;9.154;2022-11-15T02:07:28;2.77;;;1.67;;
4837;SDS011;2433;48.768;9.154;2022-11-15T02:10:17;3.27;;;2.20;;
4837;SDS011;2433;48.768;9.154;2022-11-15T02:13:06;2.13;;;1.93;;
4837;SDS011;2433;48.768;9.154;2022-11-15T02:16:03;4.57;;;2.37;;
4837;SDS011;2433;48.768;9.154;2022-11-15T02:29:11;4.70;;;2.67;;
4837;SDS011;2433;48.768;9.154;2022-11-15T02:32:06;2.03;;;1.70;;
4837;SDS011;2433;48.768;9.154;2022-11-15T02:43:50;3.00;;;1.90;;
4837;SDS011;2433;48.768;9.154;2022-11-15T02:46:41;2.23;;;2.03;;
4837;SDS011;2433;48.768;9.154;2022-11-15T02:49:51;3.70;;;1.87;;
4837;SDS011;2433;48.768;9.154;2022-11-15T02:52:37;3.07;;;1.83;;
4837;SDS011;2433;48.768;9.154;2022-11-15T02:55:29;2.87;;;1.67;;
4837;SDS011;2433;48.768;9.154;2022-11-15T02:58:19;1.53;;;1.20;;
4837;SDS011;2433;48.768;9.154;2022-11-15T03:07:46;2.40;;;1.63;;
4837;SDS011;2433;48.768;9.154;2022-11-15T03:10:37;3.07;;;1.93;;
4837;SDS011;2433;48.768;9.154;2022-11-15T03:13:26;4.27;;;2.00;;
4837;SDS011;2433;48.768;9.154;2022-11-15T03:19:44;1.90;;;1.70;;
4837;SDS011;2433;48.768;9.154;2022-11-15T03:22:32;2.53;;;2.33;;
4837;SDS011;2433;48.768;9.154;2022-11-15T03:25:22;6.20;;;2.37;;
4837;SDS011;2433;48.768;9.154;2022-11-15T03:28:08;4.10;;;2.07;;
4837;SDS011;2433;48.768;9.154;2022-11-15T03:30:57;3.57;;;2.20;;
4837;SDS011;2433;48.768;9.154;2022-11-15T03:33:41;2.50;;;2.30;;
4837;SDS011;2433;48.768;9.154;2022-11-15T03:36:26;1.67;;;1.20;;
4837;SDS011;2433;48.768;9.154;2022-11-15T03:39:10;2.40;;;2.17;;
4837;SDS011;2433;48.768;9.154;2022-11-15T03:41:59;2.40;;;1.53;;
4837;SDS011;2433;48.768;9.154;2022-11-15T03:48:01;3.10;;;2.00;;
4837;SDS011;2433;48.768;9.154;2022-11-15T03:50:49;2.50;;;2.10;;
4837;SDS011;2433;48.768;9.154;2022-11-15T03:53:34;3.23;;;1.90;;
4837;SDS011;2433;48.768;9.154;2022-11-15T03:56:18;2.63;;;1.77;;
4837;SDS011;2433;48.768;9.154;2022-11-15T03:59:02;3.73;;;2.10;;
4837;SDS011;2433;48.768;9.154;2022-11-15T04:01:46;2.50;;;1.90;;
4837;SDS011;2433;48.768;9.154;2022-11-15T04:04:30;2.47;;;1.57;;
4837;SDS011;2433;48.768;9.154;2022-11-15T04:07:15;1.80;;;1.67;;
4837;SDS011;2433;48.768;9.154;2022-11-15T04:09:59;1.93;;;1.77;;
4837;SDS011;2433;48.768;9.154;2022-11-15T04:12:46;1.70;;;1.60;;
4837;SDS011;2433;48.768;9.154;2022-11-15T04:15:32;1.70;;;1.60;;
4837;SDS011;2433;48.768;9.154;2022-11-15T04:18:16;2.77;;;2.00;;
4837;SDS011;2433;48.768;9.154;2022-11-15T04:21:01;7.20;;;2.03;;
4837;SDS011;2433;48.768;9.154;2022-11-15T04:24:04;4.33;;;2.10;;
4837;SDS011;2433;48.768;9.154;2022-11-15T04:26:58;2.43;;;1.80;;
4837;SDS011;2433;48.768;9.154;2022-11-15T04:29:42;2.03;;;1.57;;
4837;SDS011;2433;48.768;9.154;2022-11-15T04:32:27;2.17;;;1.90;;
4837;SDS011;2433;48.768;9.154;2022-11-15T04:35:11;1.97;;;1.70;;
4837;SDS011;2433;48.768;9.154;2022-11-15T04:37:55;1.83;;;1.73;;
4837;SDS011;2433;48.768;9.154;2022-11-15T04:40:40;5.10;;;2.20;;
4837;SDS011;2433;48.768;9.154;2022-11-15T04:43:24;3.53;;;2.37;;
4837;SDS011;2433;48.768;9.154;2022-11-15T04:46:08;2.10;;;1.90;;
4837;SDS011;2433;48.768;9.154;2022-11-15T04:48:52;5.80;;;2.43;;
4837;SDS011;2433;48.768;9.154;2022-11-15T04:51:37;3.60;;;2.60;;
4837;SDS011;2433;48.768;9.154;2022-11-15T04:54:21;3.23;;;2.40;;
4837;SDS011;2433;48.768;9.154;2022-11-15T04:57:05;4.37;;;1.77;;
4837;SDS011;2433;48.768;9.154;2022-11-15T04:59:49;1.67;;;1.50;;
4837;SDS011;2433;48.768;9.154;2022-11-15T05:02:33;3.50;;;1.87;;
4837;SDS011;2433;48.768;9.154;2022-11-15T05:05:36;2.33;;;2.07;;
4837;SDS011;2433;48.768;9.154;2022-11-15T05:08:21;1.90;;;1.80;;
4837;SDS011;2433;48.768;9.154;2022-11-15T05:11:05;2.70;;;1.50;;
4837;SDS011;2433;48.768;9.154;2022-11-15T05:13:49;2.33;;;1.73;;
4837;SDS011;2433;48.768;9.154;2022-11-15T05:16:34;2.70;;;2.40;;
4837;SDS011;2433;48.768;9.154;2022-11-15T05:19:19;2.67;;;2.10;;
4837;SDS011;2433;48.768;9.154;2022-11-15T05:22:03;3.57;;;2.20;;
4837;SDS011;2433;48.768;9.154;2022-11-15T05:24:47;2.00;;;1.33;;
4837;SDS011;2433;48.768;9.154;2022-11-15T05:27:33;3.77;;;1.40;;
4837;SDS011;2433;48.768;9.154;2022-11-15T05:30:18;2.03;;;1.80;;
4837;SDS011;2433;48.768;9.154;2022-11-15T05:33:02;2.50;;;1.50;;
4837;SDS011;2433;48.768;9.154;2022-11-15T05:35:48;3.20;;;2.33;;
4837;SDS011;2433;48.768;9.154;2022-11-15T05:38:36;2.60;;;2.13;;
4837;SDS011;2433;48.768;9.154;2022-11-15T05:41:21;2.83;;;1.90;;
4837;SDS011;2433;48.768;9.154;2022-11-15T05:44:16;2.93;;;2.00;;
4837;SDS011;2433;48.768;9.154;2022-11-15T05:47:02;2.10;;;1.90;;
4837;SDS011;2433;48.768;9.154;2022-11-15T05:49:48;3.10;;;2.47;;
4837;SDS011;2433;48.768;9.154;2022-11-15T05:52:34;3.00;;;1.60;;
4837;SDS011;2433;48.768;9.154;2022-11-15T05:55:19;1.90;;;1.70;;
4837;SDS011;2433;48.768;9.154;2022-11-15T05:58:03;2.30;;;1.90;;
4837;SDS011;2433;48.768;9.154;2022-11-15T06:00:48;2.43;;;1.80;;
4837;SDS011;2433;48.768;9.154;2022-11-15T06:03:32;2.50;;;1.90;;
4837;SDS011;2433;48.768;9.154;2022-11-15T06:06:16;2.30;;;1.83;;
4837;SDS011;2433;48.768;9.154;2022-11-15T06:09:00;2.10;;;1.47;;
4837;SDS011;2433;48.768;9.154;2022-11-15T06:11:44;2.73;;;2.20;;
4837;SDS011;2433;48.768;9.154;2022-11-15T06:14:28;2.97;;;2.40;;
4837;SDS011;2433;48.768;9.154;2022-11-15T06:17:13;3.70;;;2.40;;
4837;SDS011;2433;48.768;9.154;2022-11-15T06:19:57;2.87;;;1.90;;
4837;SDS011;2433;48.768;9.154;2022-11-15T06:22:42;1.73;;;1.37;;
4837;SDS011;2433;48.768;9.154;2022-11-15T06:25:26;2.47;;;2.27;;
4837;SDS011;2433;48.768;9.154;2022-11-15T06:28:11;1.97;;;1.83;;
4837;SDS011;2433;48.768;9.154;2022-11-15T06:30:55;5.20;;;2.40;;
4837;SDS011;2433;48.768;9.154;2022-11-15T06:33:41;2.53;;;2.17;;
4837;SDS011;2433;48.768;9.154;2022-11-15T06:36:25;3.80;;;1.70;;
4837;SDS011;2433;48.768;9.154;2022-11-15T06:39:09;3.40;;;2.40;;
4837;SDS011;2433;48.768;9.154;2022-11-15T06:41:53;2.57;;;2.33;;
4837;SDS011;2433;48.768;9.154;2022-11-15T06:44:38;3.30;;;2.50;;
4837;SDS011;2433;48.768;9.154;2022-11-15T06:47:22;3.20;;;2.50;;
4837;SDS011;2433;48.768;9.154;2022-11-15T06:50:06;5.87;;;2.90;;
4837;SDS011;2433;48.768;9.154;2022-11-15T06:52:51;3.37;;;2.57;;
4837;SDS011;2433;48.768;9.154;2022-11-15T06:55:35;5.13;;;3.27;;
4837;SDS011;2433;48.768;9.154;2022-11-15T06:58:20;3.93;;;3.53;;
4837;SDS011;2433;48.768;9.154;2022-11-15T07:01:05;3.37;;;2.37;;
4837;SDS011;2433;48.768;9.154;2022-11-15T07:03:51;4.60;;;2.90;;
4837;SDS011;2433;48.768;9.154;2022-11-15T07:06:35;4.70;;;3.20;;
4837;SDS011;2433;48.768;9.154;2022-11-15T07:09:19;2.80;;;2.60;;
4837;SDS011;2433;48.768;9.154;2022-11-15T07:12:04;4.83;;;2.87;;
4837;SDS011;2433;48.768;9.154;2022-11-15T07:14:49;4.40;;;2.70;;
4837;SDS011;2433;48.768;9.154;2022-11-15T07:17:33;4.47;;;3.23;;
4837;SDS011;2433;48.768;9.154;2022-11-15T07:20:17;2.93;;;2.43;;
4837;SDS011;2433;48.768;9.154;2022-11-15T07:23:05;4.40;;;3.17;;
4837;SDS011;2433;48.768;9.154;2022-11-15T07:25:49;4.80;;;2.80;;
4837;SDS011;2433;48.768;9.154;2022-11-15T07:28:34;3.93;;;2.57;;
4837;SDS011;2433;48.768;9.154;2022-11-15T07:31:18;3.07;;;2.83;;
4837;SDS011;2433;48.768;9.154;2022-11-15T07:34:03;3.80;;;2.97;;
4837;SDS011;2433;48.768;9.154;2022-11-15T07:36:47;3.60;;;3.10;;
4837;SDS011;2433;48.768;9.154;2022-11-15T07:39:31;2.90;;;2.40;;
4837;SDS011;2433;48.768;9.154;2022-11-15T07:42:15;3.27;;;2.87;;
4837;SDS011;2433;48.768;9.154;2022-11-15T07:45:19;6.23;;;2.90;;
4837;SDS011;2433;48.768;9.154;2022-11-15T07:48:04;3.10;;;2.73;;
4837;SDS011;2433;48.768;9.154;2022-11-15T07:50:48;3.47;;;2.63;;
4837;SDS011;2433;48.768;9.154;2022-11-15T07:53:32;4.30;;;3.27;;
4837;SDS011;2433;48.768;9.154;2022-11-15T07:56:17;9.00;;;3.10;;
4837;SDS011;2433;48.768;9.154;2022-11-15T07:59:01;3.57;;;2.37;;
4837;SDS011;2433;48.768;9.154;2022-11-15T08:01:45;3.30;;;2.37;;
4837;SDS011;2433;48.768;9.154;2022-11-15T08:04:29;2.20;;;2.00;;
4837;SDS011;2433;48.768;9.154;2022-11-15T08:07:13;2.20;;;2.00;;
4837;SDS011;2433;48.768;9.154;2022-11-15T08:09:58;2.70;;;2.40;;
4837;SDS011;2433;48.768;9.154;2022-11-15T08:12:42;3.40;;;2.83;;
4837;SDS011;2433;48.768;9.154;2022-11-15T08:15:26;4.27;;;2.87;;
4837;SDS011;2433;48.768;9.154;2022-11-15T08:18:12;2.47;;;2.27;;
4837;SDS011;2433;48.768;9.154;2022-11-15T08:20:59;2.90;;;2.60;;
4837;SDS011;2433;48.768;9.154;2022-11-15T08:23:43;5.50;;;2.67;;
4837;SDS011;2433;48.768;9.154;2022-11-15T08:26:27;3.63;;;2.80;;
4837;SDS011;2433;48.768;9.154;2022-11-15T08:29:14;5.27;;;3.07;;
4837;SDS011;2433;48.768;9.154;2022-11-15T08:31:58;6.33;;;3.23;;
4837;SDS011;2433;48.768;9.154;2022-11-15T08:34:42;3.63;;;2.30;;
4837;SDS011;2433;48.768;9.154;2022-11-15T08:37:26;5.07;;;2.50;;
4837;SDS011;2433;48.768;9.154;2022-11-15T08:40:10;3.10;;;2.83;;
4837;SDS011;2433;48.768;9.154;2022-11-15T08:42:54;3.40;;;2.63;;
4837;SDS011;2433;48.768;9.154;2022-11-15T08:45:38;3.40;;;3.10;;
4837;SDS011;2433;48.768;9.154;2022-11-15T08:48:23;5.03;;;2.80;;
4837;SDS011;2433;48.768;9.154;2022-11-15T08:51:07;3.40;;;2.50;;
4837;SDS011;2433;48.768;9.154;2022-11-15T08:53:51;3.13;;;2.83;;
4837;SDS011;2433;48.768;9.154;2022-11-15T08:56:35;5.73;;;2.50;;
4837;SDS011;2433;48.768;9.154;2022-11-15T08:59:20;7.60;;;4.20;;
4837;SDS011;2433;48.768;9.154;2022-11-15T09:02:04;4.50;;;2.50;;
4837;SDS011;2433;48.768;9.154;2022-11-15T09:04:48;2.67;;;2.37;;
4837;SDS011;2433;48.768;9.154;2022-11-15T09:07:32;3.53;;;2.60;;
4837;SDS011;2433;48.768;9.154;2022-11-15T09:10:16;3.77;;;2.00;;
4837;SDS011;2433;48.768;9.154;2022-11-15T09:13:01;5.33;;;2.40;;
4837;SDS011;2433;48.768;9.154;2022-11-15T09:15:45;7.73;;;4.43;;
4837;SDS011;2433;48.768;9.154;2022-11-15T09:18:30;3.10;;;2.20;;
4837;SDS011;2433;48.768;9.154;2022-11-15T09:21:15;2.33;;;2.13;;
4837;SDS011;2433;48.768;9.154;2022-11-15T09:23:59;3.73;;;2.70;;
4837;SDS011;2433;48.768;9.154;2022-11-15T09:26:43;6.20;;;3.10;;
4837;SDS011;2433;48.768;9.154;2022-11-15T09:29:27;4.03;;;2.43;;
4837;SDS011;2433;48.768;9.154;2022-11-15T09:32:11;4.67;;;3.00;;
4837;SDS011;2433;48.768;9.154;2022-11-15T09:34:55;2.43;;;2.20;;
4837;SDS011;2433;48.768;9.154;2022-11-15T09:37:40;6.97;;;3.40;;
4837;SDS011;2433;48.768;9.154;2022-11-15T09:40:24;5.13;;;2.37;;
4837;SDS011;2433;48.768;9.154;2022-11-15T09:48:59;4.77;;;2.90;;
4837;SDS011;2433;48.768;9.154;2022-11-15T09:51:45;5.20;;;2.80;;
4837;SDS011;2433;48.768;9.154;2022-11-15T09:54:16;3.00;;;2.40;;
4837;SDS011;2433;48.768;9.154;2022-11-15T09:56:47;3.40;;;2.40;;
4837;SDS011;2433;48.768;9.154;2022-11-15T10:04:50;4.50;;;3.17;;
4837;SDS011;2433;48.768;9.154;2022-11-15T10:10:10;5.50;;;2.80;;
4837;SDS011;2433;48.768;9.154;2022-11-15T10:12:54;2.40;;;2.20;;
4837;SDS011;2433;48.768;9.154;2022-11-15T10:15:20;7.47;;;2.63;;
4837;SDS011;2433;48.768;9.154;2022-11-15T10:20:48;2.13;;;1.97;;
4837;SDS011;2433;48.768;9.154;2022-11-15T10:23:17;4.30;;;1.97;;
4837;SDS011;2433;48.768;9.154;2022-11-15T10:25:44;4.47;;;2.00;;
4837;SDS011;2433;48.768;9.154;2022-11-15T10:28:18;3.00;;;2.30;;
4837;SDS011;2433;48.768;9.154;2022-11-15T10:30:56;5.30;;;3.40;;
4837;SDS011;2433;48.768;9.154;2022-11-15T10:33:32;4.80;;;2.50;;
4837;SDS011;2433;48.768;9.154;2022-11-15T10:41:16;3.93;;;2.17;;
4837;SDS011;2433;48.768;9.154;2022-11-15T10:43:45;1.60;;;1.50;;
4837;SDS011;2433;48.768;9.154;2022-11-15T10:46:21;2.13;;;1.80;;
4837;SDS011;2433;48.768;9.154;2022-11-15T10:48:48;3.00;;;2.40;;
4837;SDS011;2433;48.768;9.154;2022-11-15T10:51:20;3.10;;;1.73;;
4837;SDS011;2433;48.768;9.154;2022-11-15T10:53:51;6.67;;;2.20;;
4837;SDS011;2433;48.768;9.154;2022-11-15T10:56:17;4.70;;;1.80;;
4837;SDS011;2433;48.768;9.154;2022-11-15T10:58:50;2.33;;;1.80;;
4837;SDS011;2433;48.768;9.154;2022-11-15T11:01:27;6.50;;;2.10;;
4837;SDS011;2433;48.768;9.154;2022-11-15T11:03:58;2.53;;;2.00;;
4837;SDS011;2433;48.768;9.154;2022-11-15T11:06:25;3.77;;;1.83;;
4837;SDS011;2433;48.768;9.154;2022-11-15T11:09:01;2.77;;;1.57;;
4837;SDS011;2433;48.768;9.154;2022-11-15T11:11:45;2.30;;;1.83;;
4837;SDS011;2433;48.768;9.154;2022-11-15T11:14:20;2.73;;;2.07;;
4837;SDS011;2433;48.768;9.154;2022-11-15T11:16:52;1.97;;;1.47;;
4837;SDS011;2433;48.768;9.154;2022-11-15T11:28:36;6.13;;;2.90;;
4837;SDS011;2433;48.768;9.154;2022-11-15T11:30:47;3.50;;;2.53;;
4837;SDS011;2433;48.768;9.154;2022-11-15T11:39:18;3.70;;;1.77;;
4837;SDS011;2433;48.768;9.154;2022-11-15T11:47:03;2.00;;;1.37;;
4837;SDS011;2433;48.768;9.154;2022-11-15T11:49:35;2.27;;;2.07;;
4837;SDS011;2433;48.768;9.154;2022-11-15T12:01:01;5.57;;;3.20;;
4837;SDS011;2433;48.768;9.154;2022-11-15T12:12:06;2.10;;;1.40;;
4837;SDS011;2433;48.768;9.154;2022-11-15T12:14:42;1.63;;;1.20;;
4837;SDS011;2433;48.768;9.154;2022-11-15T12:17:11;3.60;;;1.87;;
4837;SDS011;2433;48.768;9.154;2022-11-15T12:19:38;2.63;;;2.43;;
4837;SDS011;2433;48.768;9.154;2022-11-15T12:22:14;1.77;;;1.40;;
4837;SDS011;2433;48.768;9.154;2022-11-15T12:24:52;1.47;;;1.37;;
4837;SDS011;2433;48.768;9.154;2022-11-15T12:33:15;1.43;;;1.23;;
4837;SDS011;2433;48.768;9.154;2022-11-15T12:36:11;2.00;;;1.47;;
4837;SDS011;2433;48.768;9.154;2022-11-15T12:39:05;2.00;;;1.50;;
4837;SDS011;2433;48.768;9.154;2022-11-15T12:41:39;1.60;;;1.50;;
4837;SDS011;2433;48.768;9.154;2022-11-15T12:44:16;2.50;;;2.17;;
4837;SDS011;2433;48.768;9.154;2022-11-15T13:02:37;2.30;;;1.80;;
4837;SDS011;2433;48.768;9.154;2022-11-15T13:22:46;7.13;;;3.53;;
4837;SDS011;2433;48.768;9.154;2022-11-15T13:30:39;3.90;;;3.53;;
4837;SDS011;2433;48.768;9.154;2022-11-15T13:33:19;4.40;;;3.43;;
4837;SDS011;2433;48.768;9.154;2022-11-15T13:35:51;4.50;;;3.90;;
4837;SDS011;2433;48.768;9.154;2022-11-15T13:38:27;10.17;;;3.80;;
4837;SDS011;2433;48.768;9.154;2022-11-15T13:40:57;4.63;;;3.43;;
4837;SDS011;2433;48.768;9.154;2022-11-15T13:48:33;3.60;;;3.13;;
4837;SDS011;2433;48.768;9.154;2022-11-15T13:50:59;6.20;;;3.60;;
4837;SDS011;2433;48.768;9.154;2022-11-15T13:53:26;4.60;;;3.40;;
4837;SDS011;2433;48.768;9.154;2022-11-15T13:55:52;3.33;;;3.00;;
4837;SDS011;2433;48.768;9.154;2022-11-15T13:58:19;4.20;;;3.80;;
4837;SDS011;2433;48.768;9.154;2022-11-15T14:00:45;4.33;;;3.10;;
4837;SDS011;2433;48.768;9.154;2022-11-15T14:08:37;5.63;;;3.47;;
4837;SDS011;2433;48.768;9.154;2022-11-15T14:11:18;3.57;;;2.90;;
4837;SDS011;2433;48.768;9.154;2022-11-15T14:16:42;3.40;;;3.10;;
4837;SDS011;2433;48.768;9.154;2022-11-15T14:19:13;5.10;;;3.53;;
4837;SDS011;2433;48.768;9.154;2022-11-15T14:22:10;3.50;;;3.20;;
4837;SDS011;2433;48.768;9.154;2022-11-15T14:24:50;4.97;;;4.50;;
4837;SDS011;2433;48.768;9.154;2022-11-15T14:27:44;3.63;;;3.33;;
4837;SDS011;2433;48.768;9.154;2022-11-15T14:30:29;6.13;;;3.40;;
4837;SDS011;2433;48.768;9.154;2022-11-15T14:32:55;5.97;;;4.00;;
4837;SDS011;2433;48.768;9.154;2022-11-15T14:35:21;3.87;;;3.57;;
4837;SDS011;2433;48.768;9.154;2022-11-15T14:37:48;6.60;;;3.87;;
4837;SDS011;2433;48.768;9.154;2022-11-15T14:40:15;6.50;;;3.60;;
4837;SDS011;2433;48.768;9.154;2022-11-15T14:42:43;5.30;;;3.97;;
4837;SDS011;2433;48.768;9.154;2022-11-15T14:45:20;3.33;;;3.03;;
4837;SDS011;2433;48.768;9.154;2022-11-15T14:47:47;8.70;;;4.17;;
4837;SDS011;2433;48.768;9.154;2022-11-15T14:50:13;8.30;;;4.03;;
4837;SDS011;2433;48.768;9.154;2022-11-15T14:52:40;3.80;;;3.20;;
4837;SDS011;2433;48.768;9.154;2022-11-15T14:55:16;4.33;;;3.43;;
4837;SDS011;2433;48.768;9.154;2022-11-15T14:57:44;4.67;;;3.23;;
4837;SDS011;2433;48.768;9.154;2022-11-15T15:00:10;3.77;;;3.27;;
4837;SDS011;2433;48.768;9.154;2022-11-15T15:02:40;4.57;;;2.57;;
4837;SDS011;2433;48.768;9.154;2022-11-15T15:05:17;5.10;;;3.20;;
4837;SDS011;2433;48.768;9.154;2022-11-15T15:07:43;3.87;;;3.47;;
4837;SDS011;2433;48.768;9.154;2022-11-15T15:10:09;3.90;;;2.77;;
4837;SDS011;2433;48.768;9.154;2022-11-15T15:12:36;4.70;;;3.50;;
4837;SDS011;2433;48.768;9.154;2022-11-15T15:15:02;3.93;;;3.50;;
4837;SDS011;2433;48.768;9.154;2022-11-15T15:17:27;4.87;;;3.23;;
4837;SDS011;2433;48.768;9.154;2022-11-15T15:19:53;3.20;;;2.90;;
4837;SDS011;2433;48.768;9.154;2022-11-15T15:22:19;7.40;;;2.87;;
4837;SDS011;2433;48.768;9.154;2022-11-15T15:24:46;5.70;;;2.87;;
4837;SDS011;2433;48.768;9.154;2022-11-15T15:27:13;7.33;;;4.00;;
4837;SDS011;2433;48.768;9.154;2022-11-15T15:29:39;4.20;;;3.40;;
4837;SDS011;2433;48.768;9.154;2022-11-15T15:32:05;7.43;;;3.80;;
4837;SDS011;2433;48.768;9.154;2022-11-15T15:34:31;5.17;;;3.73;;
4837;SDS011;2433;48.768;9.154;2022-11-15T15:39:48;4.07;;;3.77;;
4837;SDS011;2433;48.768;9.154;2022-11-15T15:42:17;6.50;;;3.43;;
4837;SDS011;2433;48.768;9.154;2022-11-15T15:44:43;5.80;;;3.50;;
4837;SDS011;2433;48.768;9.154;2022-11-15T15:47:22;6.17;;;4.60;;
4837;SDS011;2433;48.768;9.154;2022-11-15T15:49:49;7.70;;;3.70;;
4837;SDS011;2433;48.768;9.154;2022-11-15T15:52:15;4.50;;;3.67;;
4837;SDS011;2433;48.768;9.154;2022-11-15T15:54:40;3.93;;;3.43;;
4837;SDS011;2433;48.768;9.154;2022-11-15T15:57:06;4.13;;;3.47;;
4837;SDS011;2433;48.768;9.154;2022-11-15T15:59:33;3.83;;;3.30;;
4837;SDS011;2433;48.768;9.154;2022-11-15T16:01:58;7.93;;;4.60;;
4837;SDS011;2433;48.768;9.154;2022-11-15T16:04:24;6.17;;;5.00;;
4837;SDS011;2433;48.768;9.154;2022-11-15T16:06:49;6.03;;;4.30;;
4837;SDS011;2433;48.768;9.154;2022-11-15T16:09:18;6.57;;;4.73;;
4837;SDS011;2433;48.768;9.154;2022-11-15T16:12:04;4.83;;;4.23;;
4837;SDS011;2433;48.768;9.154;2022-11-15T16:14:30;5.90;;;5.30;;
4837;SDS011;2433;48.768;9.154;2022-11-15T16:16:56;6.10;;;4.70;;
4837;SDS011;2433;48.768;9.154;2022-11-15T16:19:22;6.60;;;4.50;;
4837;SDS011;2433;48.768;9.154;2022-11-15T16:21:48;5.33;;;4.20;;
4837;SDS011;2433;48.768;9.154;2022-11-15T16:24:13;7.00;;;4.70;;
4837;SDS011;2433;48.768;9.154;2022-11-15T16:26:39;5.60;;;4.50;;
4837;SDS011;2433;48.768;9.154;2022-11-15T16:29:04;7.20;;;4.60;;
4837;SDS011;2433;48.768;9.154;2022-11-15T16:31:32;8.13;;;4.90;;
4837;SDS011;2433;48.768;9.154;2022-11-15T16:33:58;7.33;;;4.43;;
4837;SDS011;2433;48.768;9.154;2022-11-15T16:36:24;7.80;;;5.20;;
4837;SDS011;2433;48.768;9.154;2022-11-15T16:38:51;5.27;;;4.50;;
4837;SDS011;2433;48.768;9.154;2022-11-15T16:41:17;7.83;;;4.83;;
4837;SDS011;2433;48.768;9.154;2022-11-15T16:43:46;7.40;;;5.17;;
4837;SDS011;2433;48.768;9.154;2022-11-15T16:46:16;3.83;;;3.53;;
4837;SDS011;2433;48.768;9.154;2022-11-15T16:48:49;4.70;;;4.30;;
4837;SDS011;2433;48.768;9.154;2022-11-15T16:51:15;5.10;;;4.60;;
4837;SDS011;2433;48.768;9.154;2022-11-15T16:53:41;7.93;;;4.50;;
4837;SDS011;2433;48.768;9.154;2022-11-15T16:58:45;6.20;;;5.00;;
4837;SDS011;2433;48.768;9.154;2022-11-15T17:01:15;6.80;;;4.77;;
4837;SDS011;2433;48.768;9.154;2022-11-15T17:03:47;5.67;;;3.93;;
4837;SDS011;2433;48.768;9.154;2022-11-15T17:06:13;5.47;;;3.83;;
4837;SDS011;2433;48.768;9.154;2022-11-15T17:08:39;5.57;;;4.30;;
4837;SDS011;2433;48.768;9.154;2022-11-15T17:11:05;6.20;;;4.40;;
4837;SDS011;2433;48.768;9.154;2022-11-15T17:13:31;5.23;;;4.50;;
4837;SDS011;2433;48.768;9.154;2022-11-15T17:16:31;6.70;;;4.20;;
4837;SDS011;2433;48.768;9.154;2022-11-15T17:18:50;5.87;;;4.40;;
4837;SDS011;2433;48.768;9.154;2022-11-15T17:21:17;6.17;;;3.90;;
4837;SDS011;2433;48.768;9.154;2022-11-15T17:23:45;5.60;;;4.10;;
4837;SDS011;2433;48.768;9.154;2022-11-15T17:26:11;5.27;;;4.57;;
4837;SDS011;2433;48.768;9.154;2022-11-15T17:28:38;5.83;;;4.30;;
4837;SDS011;2433;48.768;9.154;2022-11-15T17:31:06;8.57;;;4.40;;
4837;SDS011;2433;48.768;9.154;2022-11-15T17:33:33;5.50;;;4.40;;
4837;SDS011;2433;48.768;9.154;2022-11-15T17:36:00;5.37;;;4.63;;
4837;SDS011;2433;48.768;9.154;2022-11-15T17:38:26;5.17;;;4.30;;
4837;SDS011;2433;48.768;9.154;2022-11-15T17:43:48;5.90;;;4.33;;
4837;SDS011;2433;48.768;9.154;2022-11-15T17:46:15;6.70;;;4.47;;
4837;SDS011;2433;48.768;9.154;2022-11-15T17:48:42;5.67;;;5.07;;
4837;SDS011;2433;48.768;9.154;2022-11-15T17:51:12;6.83;;;4.90;;
4837;SDS011;2433;48.768;9.154;2022-11-15T17:53:40;7.03;;;4.70;;
4837;SDS011;2433;48.768;9.154;2022-11-15T17:56:07;5.97;;;4.37;;
4837;SDS011;2433;48.768;9.154;2022-11-15T17:58:37;4.70;;;3.70;;
4837;SDS011;2433;48.768;9.154;2022-11-15T18:01:04;6.23;;;4.83;;
4837;SDS011;2433;48.768;9.154;2022-11-15T18:03:49;6.73;;;5.37;;
4837;SDS011;2433;48.768;9.154;2022-11-15T18:06:15;8.47;;;4.90;;
4837;SDS011;2433;48.768;9.154;2022-11-15T18:08:42;6.63;;;4.73;;
4837;SDS011;2433;48.768;9.154;2022-11-15T18:11:13;4.80;;;4.37;;
4837;SDS011;2433;48.768;9.154;2022-11-15T18:13:41;6.17;;;4.73;;
4837;SDS011;2433;48.768;9.154;2022-11-15T18:16:10;5.73;;;5.03;;
4837;SDS011;2433;48.768;9.154;2022-11-15T18:18:38;5.70;;;4.60;;
4837;SDS011;2433;48.768;9.154;2022-11-15T18:21:09;5.43;;;4.80;;
4837;SDS011;2433;48.768;9.154;2022-11-15T18:23:36;5.07;;;4.57;;
4837;SDS011;2433;48.768;9.154;2022-11-15T18:26:03;4.80;;;4.40;;
4837;SDS011;2433;48.768;9.154;2022-11-15T18:28:31;6.20;;;5.50;;
4837;SDS011;2433;48.768;9.154;2022-11-15T18:30:58;6.30;;;5.50;;
4837;SDS011;2433;48.768;9.154;2022-11-15T18:33:25;7.17;;;4.60;;
4837;SDS011;2433;48.768;9.154;2022-11-15T18:35:57;5.93;;;5.17;;
4837;SDS011;2433;48.768;9.154;2022-11-15T18:38:24;8.70;;;4.70;;
4837;SDS011;2433;48.768;9.154;2022-11-15T18:40:55;6.87;;;5.30;;
4837;SDS011;2433;48.768;9.154;2022-11-15T18:43:21;6.80;;;4.43;;
4837;SDS011;2433;48.768;9.154;2022-11-15T18:45:47;5.90;;;5.30;;
4837;SDS011;2433;48.768;9.154;2022-11-15T18:48:12;6.30;;;5.37;;
4837;SDS011;2433;48.768;9.154;2022-11-15T18:50:38;9.07;;;6.13;;
4837;SDS011;2433;48.768;9.154;2022-11-15T18:53:03;5.20;;;4.70;;
4837;SDS011;2433;48.768;9.154;2022-11-15T18:55:29;9.40;;;5.43;;
4837;SDS011;2433;48.768;9.154;2022-11-15T18:57:55;12.50;;;6.17;;
4837;SDS011;2433;48.768;9.154;2022-11-15T19:00:20;7.90;;;5.80;;
4837;SDS011;2433;48.768;9.154;2022-11-15T19:02:46;5.63;;;5.03;;